createdAt,value
2022-12-26T00:02:01.573Z,100803.94
2022-12-26T00:04:51.759Z,100803.09
2022-12-26T00:07:14.539Z,100810.09
2022-12-26T00:09:40.979Z,100805.75
2022-12-26T00:12:07.439Z,100806.06
2022-12-26T00:14:33.884Z,100806.88
2022-12-26T00:17:00.349Z,100814.19
2022-12-26T00:19:26.780Z,100812.22
2022-12-26T00:21:53.242Z,100821.03
2022-12-26T00:24:19.683Z,100827.00
2022-12-26T00:26:46.078Z,100829.03
2022-12-26T00:29:12.508Z,100823.69
2022-12-26T00:31:39.010Z,100829.03
2022-12-26T00:34:05.538Z,100829.69
2022-12-26T00:36:33.872Z,100819.22
2022-12-26T00:39:02.024Z,100824.06
2022-12-26T00:41:29.167Z,100824.88
2022-12-26T00:43:56.252Z,100827.34
2022-12-26T00:46:23.050Z,100824.06
2022-12-26T00:48:49.575Z,100818.75
2022-12-26T00:51:16.123Z,100811.22
2022-12-26T00:53:42.734Z,100808.56
2022-12-26T00:56:09.231Z,100796.25
2022-12-26T00:58:36.233Z,100807.72
2022-12-26T01:01:18.609Z,100793.75
2022-12-26T01:03:46.768Z,100795.25
2022-12-26T01:06:14.076Z,100805.53
2022-12-26T01:08:40.657Z,100803.38
2022-12-26T01:11:10.495Z,100805.25
2022-12-26T01:13:37.575Z,100801.94
2022-12-26T01:16:04.582Z,100805.34
2022-12-26T01:18:31.321Z,100812.03
2022-12-26T01:20:59.947Z,100812.22
2022-12-26T01:23:26.759Z,100817.00
2022-12-26T01:26:17.736Z,100812.22
2022-12-26T01:28:39.665Z,100806.06
2022-12-26T01:31:06.546Z,100811.91
2022-12-26T01:33:33.541Z,100812.56
2022-12-26T01:36:00.097Z,100807.25
2022-12-26T01:38:26.977Z,100814.22
2022-12-26T01:41:13.422Z,100817.06
2022-12-26T01:43:58.385Z,100825.69
2022-12-26T01:46:27.747Z,100826.00
2022-12-26T01:48:56.203Z,100823.03
2022-12-26T01:51:26.454Z,100823.41
2022-12-26T01:53:56.462Z,100822.19
2022-12-26T01:56:45.424Z,100819.72
2022-12-26T01:59:17.327Z,100809.25
2022-12-26T02:01:45.402Z,100799.81
2022-12-26T02:04:35.635Z,100803.47
2022-12-26T02:07:04.181Z,100805.13
2022-12-26T02:09:31.803Z,100806.13
2022-12-26T02:12:35.368Z,100792.34
2022-12-26T02:14:57.014Z,100795.84
2022-12-26T02:17:25.092Z,100796.22
2022-12-26T02:20:20.785Z,100788.88
2022-12-26T02:23:05.892Z,100785.38
2022-12-26T02:26:17.118Z,100775.09
2022-12-26T02:28:56.719Z,100782.25
2022-12-26T02:31:47.807Z,100781.78
2022-12-26T02:34:23.652Z,100786.63
2022-12-26T02:37:23.031Z,100787.09
2022-12-26T02:40:01.066Z,100789.09
2022-12-26T02:43:06.501Z,100788.28
2022-12-26T02:45:57.566Z,100784.78
2022-12-26T02:48:47.287Z,100793.13
2022-12-26T02:51:53.402Z,100794.97
2022-12-26T02:54:46.954Z,100787.53
2022-12-26T02:57:38.377Z,100791.00
2022-12-26T03:00:35.768Z,100800.66
2022-12-26T03:03:30.869Z,100797.34
2022-12-26T03:06:24.108Z,100804.28
2022-12-26T03:09:20.788Z,100807.31
2022-12-26T03:12:14.224Z,100811.97
2022-12-26T03:14:47.468Z,100806.66
2022-12-26T03:17:32.532Z,100800.53
2022-12-26T03:20:05.674Z,100800.00
2022-12-26T03:22:44.826Z,100793.66
2022-12-26T03:25:37.259Z,100785.66
2022-12-26T03:28:04.177Z,100785.31
2022-12-26T03:30:49.726Z,100783.47
2022-12-26T03:33:41.122Z,100776.34
2022-12-26T03:36:12.155Z,100775.31
2022-12-26T03:38:51.150Z,100779.66
2022-12-26T03:41:52.169Z,100775.31
2022-12-26T03:44:53.852Z,100770.19
2022-12-26T03:47:57.899Z,100767.53
2022-12-26T03:50:55.832Z,100780.81
2022-12-26T03:53:52.277Z,100763.41
2022-12-26T03:56:48.707Z,100773.19
2022-12-26T03:59:42.737Z,100779.53
2022-12-26T04:02:31.222Z,100783.38
2022-12-26T04:05:20.597Z,100781.38
2022-12-26T04:08:18.564Z,100786.69
2022-12-26T04:11:09.910Z,100785.50
2022-12-26T04:14:13.100Z,100778.06
2022-12-26T04:17:14.677Z,100784.88
2022-12-26T04:19:58.189Z,100782.22
2022-12-26T04:23:06.237Z,100787.69
2022-12-26T04:25:58.235Z,100792.38
2022-12-26T04:28:43.433Z,100786.03
2022-12-26T04:31:47.580Z,100796.69
2022-12-26T04:34:40.428Z,100795.03
2022-12-26T04:37:32.716Z,100804.28
2022-12-26T04:40:20.061Z,100798.63
2022-12-26T04:43:46.754Z,100792.00
2022-12-26T04:45:54.786Z,100786.69
2022-12-26T04:48:39.983Z,100779.38
2022-12-26T04:51:06.382Z,100768.34
2022-12-26T04:53:32.765Z,100763.41
2022-12-26T04:55:59.154Z,100767.69
2022-12-26T04:58:26.587Z,100757.91
2022-12-26T05:01:13.155Z,100748.25
2022-12-26T05:03:58.449Z,100739.78
2022-12-26T05:06:43.547Z,100745.75
2022-12-26T05:09:30.874Z,100750.44
2022-12-26T05:11:57.295Z,100740.03
2022-12-26T05:14:23.725Z,100750.63
2022-12-26T05:17:08.662Z,100754.59
2022-12-26T05:19:53.658Z,100758.06
2022-12-26T05:22:39.881Z,100751.44
2022-12-26T05:25:34.800Z,100759.59
2022-12-26T05:28:19.947Z,100755.63
2022-12-26T05:30:46.419Z,100765.13
2022-12-26T05:33:31.362Z,100772.25
2022-12-26T05:35:58.360Z,100759.97
2022-12-26T05:38:24.821Z,100761.78
2022-12-26T05:40:51.250Z,100762.81
2022-12-26T05:43:19.851Z,100750.03
2022-12-26T05:45:46.242Z,100766.09
2022-12-26T05:48:12.885Z,100757.13
2022-12-26T05:50:39.322Z,100763.63
2022-12-26T05:53:05.717Z,100766.94
2022-12-26T05:55:32.115Z,100752.66
2022-12-26T05:58:00.083Z,100768.75
2022-12-26T06:00:27.285Z,100766.75
2022-12-26T06:02:53.828Z,100782.06
2022-12-26T06:05:20.340Z,100778.78
2022-12-26T06:07:46.745Z,100770.63
2022-12-26T06:10:13.427Z,100777.88
2022-12-26T06:12:40.093Z,100773.19
2022-12-26T06:15:07.350Z,100774.03
2022-12-26T06:17:33.783Z,100779.38
2022-12-26T06:20:00.175Z,100773.19
2022-12-26T06:22:29.272Z,100769.81
2022-12-26T06:24:55.731Z,100769.00
2022-12-26T06:27:22.275Z,100772.16
2022-12-26T06:29:48.708Z,100778.28
2022-12-26T06:32:15.191Z,100767.44
2022-12-26T06:34:41.604Z,100769.50
2022-12-26T06:37:08.040Z,100757.09
2022-12-26T06:39:34.501Z,100760.66
2022-12-26T06:42:01.051Z,100761.69
2022-12-26T06:44:27.543Z,100758.19
2022-12-26T06:46:54.020Z,100754.69
2022-12-26T06:49:20.444Z,100756.19
2022-12-26T06:51:46.990Z,100758.94
2022-12-26T06:54:13.558Z,100749.84
2022-12-26T06:56:40.146Z,100748.19
2022-12-26T06:59:06.770Z,100744.63
2022-12-26T07:01:34.989Z,100747.75
2022-12-26T07:04:04.221Z,100740.97
2022-12-26T07:06:33.370Z,100737.00
2022-12-26T07:09:14.301Z,100743.16
2022-12-26T07:11:44.396Z,100744.81
2022-12-26T07:14:11.159Z,100752.91
2022-12-26T07:16:39.850Z,100746.91
2022-12-26T07:19:07.031Z,100739.78
2022-12-26T07:21:40.176Z,100741.41
2022-12-26T07:24:08.956Z,100739.97
2022-12-26T07:26:35.623Z,100756.94
2022-12-26T07:29:02.131Z,100752.44
2022-12-26T07:31:29.261Z,100767.16
2022-12-26T07:33:56.361Z,100774.19
2022-12-26T07:36:25.151Z,100770.06
2022-12-26T07:38:51.833Z,100769.88
2022-12-26T07:41:37.172Z,100766.38
2022-12-26T07:44:05.984Z,100779.03
2022-12-26T07:46:32.963Z,100791.66
2022-12-26T07:48:59.423Z,100797.97
2022-12-26T07:51:25.841Z,100815.41
2022-12-26T07:53:52.317Z,100804.47
2022-12-26T07:56:18.750Z,100813.75
2022-12-26T07:58:48.626Z,100820.94
2022-12-26T08:01:16.044Z,100828.91
2022-12-26T08:03:42.664Z,100840.19
2022-12-26T08:06:12.219Z,100829.72
2022-12-26T08:08:39.018Z,100845.34
2022-12-26T08:11:07.628Z,100830.81
2022-12-26T08:13:34.851Z,100850.53
2022-12-26T08:16:06.510Z,100858.69
2022-12-26T08:18:33.534Z,100858.06
2022-12-26T08:21:00.107Z,100873.03
2022-12-26T08:23:27.952Z,100877.69
2022-12-26T08:25:54.367Z,100884.38
2022-12-26T08:28:20.890Z,100895.03
2022-12-26T08:30:47.616Z,100894.56
2022-12-26T08:33:14.027Z,100907.19
2022-12-26T08:35:40.564Z,100932.97
2022-12-26T08:38:08.053Z,100926.19
2022-12-26T08:40:43.549Z,100943.84
2022-12-26T08:45:58.565Z,100952.53
2022-12-26T08:48:25.095Z,100977.97
2022-12-26T08:50:56.658Z,100982.66
2022-12-26T08:53:23.117Z,100992.50
2022-12-26T08:55:49.528Z,101004.97
2022-12-26T08:58:16.011Z,101015.44
2022-12-26T09:00:42.481Z,101024.25
2022-12-26T09:03:09.018Z,101043.19
2022-12-26T09:05:35.419Z,101050.34
2022-12-26T09:08:01.887Z,101050.50
2022-12-26T09:10:28.531Z,101062.16
2022-12-26T09:12:55.027Z,101070.13
2022-12-26T09:15:21.448Z,101068.63
2022-12-26T09:17:47.848Z,101068.13
2022-12-26T09:20:14.309Z,101087.22
2022-12-26T09:22:52.966Z,101093.56
2022-12-26T09:25:21.386Z,101098.72
2022-12-26T09:27:51.924Z,101112.81
2022-12-26T09:30:22.970Z,101114.94
2022-12-26T09:32:49.759Z,101120.28
2022-12-26T09:35:16.282Z,101120.59
2022-12-26T09:37:42.750Z,101129.25
2022-12-26T09:40:21.261Z,101129.09
2022-12-26T09:43:04.618Z,101142.22
2022-12-26T09:46:07.107Z,101150.16
2022-12-26T09:48:43.229Z,101157.19
2022-12-26T09:51:10.666Z,101156.34
2022-12-26T09:53:43.923Z,101155.84
2022-12-26T09:57:01.272Z,101161.66
2022-12-26T09:59:16.395Z,101157.13
2022-12-26T10:01:43.582Z,101159.16
2022-12-26T10:04:28.525Z,101167.75
2022-12-26T10:07:05.126Z,101169.28
2022-12-26T10:09:42.592Z,101178.28
2022-12-26T10:12:26.025Z,101176.47
2022-12-26T10:15:10.638Z,101194.06
2022-12-26T10:17:44.674Z,101187.41
2022-12-26T10:20:21.024Z,101180.75
2022-12-26T10:23:09.128Z,101189.06
2022-12-26T10:25:42.248Z,101182.25
2022-12-26T10:28:25.536Z,101191.75
2022-12-26T10:30:56.294Z,101196.72
2022-12-26T10:34:12.164Z,101204.84
2022-12-26T10:36:47.084Z,101200.34
2022-12-26T10:39:35.858Z,101210.34
2022-12-26T10:42:14.449Z,101218.16
2022-12-26T10:44:41.162Z,101220.13
2022-12-26T10:47:16.965Z,101231.47
2022-12-26T10:49:45.920Z,101231.28
2022-12-26T10:52:12.655Z,101221.84
2022-12-26T10:54:39.360Z,101230.16
2022-12-26T10:57:08.456Z,101238.16
2022-12-26T10:59:52.845Z,101238.00
2022-12-26T11:02:24.439Z,101232.84
2022-12-26T11:07:56.824Z,101221.03
2022-12-26T11:10:27.931Z,101220.75
2022-12-26T11:12:56.344Z,101243.44
2022-12-26T11:15:32.094Z,101242.53
2022-12-26T11:18:31.886Z,101260.00
2022-12-26T11:21:17.958Z,101258.13
2022-12-26T11:23:45.853Z,101250.06
2022-12-26T11:26:24.712Z,101256.53
2022-12-26T11:29:12.734Z,101268.88
2022-12-26T11:32:00.477Z,101269.25
2022-12-26T11:34:45.820Z,101281.06
2022-12-26T11:37:27.947Z,101285.91
2022-12-26T11:39:54.709Z,101275.41
2022-12-26T11:42:26.253Z,101278.06
2022-12-26T11:44:55.785Z,101273.28
2022-12-26T11:47:27.243Z,101273.75
2022-12-26T11:50:03.198Z,101282.56
2022-12-26T11:52:37.669Z,101290.53
2022-12-26T11:55:25.586Z,101304.63
2022-12-26T11:58:15.992Z,101296.28
2022-12-26T12:01:05.884Z,101301.44
2022-12-26T12:03:49.951Z,101293.63
2022-12-26T12:06:32.821Z,101303.94
2022-12-26T12:09:14.405Z,101302.47
2022-12-26T12:12:06.801Z,101309.25
2022-12-26T12:14:54.570Z,101310.78
2022-12-26T12:17:30.223Z,101325.22
2022-12-26T12:20:19.640Z,101331.72
2022-12-26T12:23:00.992Z,101327.50
2022-12-26T12:25:49.598Z,101340.97
2022-12-26T12:28:37.711Z,101332.28
2022-12-26T12:31:17.071Z,101331.50
2022-12-26T12:33:54.942Z,101342.13
2022-12-26T12:36:55.584Z,101335.72
2022-12-26T12:39:59.432Z,101356.22
2022-12-26T12:42:34.824Z,101337.75
2022-12-26T12:45:42.903Z,101344.22
2022-12-26T12:48:12.092Z,101349.03
2022-12-26T12:50:56.963Z,101355.00
2022-12-26T12:53:59.589Z,101354.78
2022-12-26T12:56:42.601Z,101372.22
2022-12-26T12:59:31.253Z,101362.56
2022-12-26T13:02:08.728Z,101365.56
2022-12-26T13:04:48.577Z,101357.75
2022-12-26T13:07:26.162Z,101356.59
2022-12-26T13:09:59.277Z,101370.09
2022-12-26T13:12:30.819Z,101352.09
2022-12-26T13:15:23.873Z,101359.19
2022-12-26T13:18:14.877Z,101352.66
2022-12-26T13:20:45.432Z,101370.00
2022-12-26T13:23:38.440Z,101351.06
2022-12-26T13:26:11.846Z,101373.44
2022-12-26T13:28:51.679Z,101381.19
2022-12-26T13:31:18.195Z,101379.84
2022-12-26T13:33:44.898Z,101396.31
2022-12-26T13:36:42.028Z,101404.97
2022-12-26T13:39:14.144Z,101395.72
2022-12-26T13:42:08.433Z,101396.81
2022-12-26T13:44:34.942Z,101407.22
2022-12-26T13:47:01.603Z,101406.00
2022-12-26T13:49:37.121Z,101406.53
2022-12-26T13:52:12.511Z,101410.34
2022-12-26T13:54:48.268Z,101413.81
2022-12-26T13:57:34.149Z,101405.69
2022-12-26T14:00:04.096Z,101396.31
2022-12-26T14:03:17.886Z,101406.47
2022-12-26T14:06:11.202Z,101428.25
2022-12-26T14:09:02.829Z,101437.28
2022-12-26T14:11:41.525Z,101426.34
2022-12-26T14:14:19.150Z,101420.59
2022-12-26T14:16:48.434Z,101435.84
2022-12-26T14:19:51.498Z,101436.06
2022-12-26T14:22:51.940Z,101444.91
2022-12-26T14:25:29.901Z,101451.47
2022-12-26T14:28:27.884Z,101453.16
2022-12-26T14:31:12.760Z,101460.19
2022-12-26T14:34:17.782Z,101457.00
2022-12-26T14:36:59.773Z,101454.19
2022-12-26T14:39:43.128Z,101447.91
2022-12-26T14:42:35.633Z,101450.56
2022-12-26T14:45:04.941Z,101452.47
2022-12-26T14:47:38.184Z,101449.50
2022-12-26T14:50:32.482Z,101467.78
2022-12-26T14:53:28.601Z,101475.16
2022-12-26T14:56:01.474Z,101479.53
2022-12-26T14:58:30.950Z,101488.66
2022-12-26T15:01:18.220Z,101490.53
2022-12-26T15:03:57.141Z,101489.38
2022-12-26T15:07:00.469Z,101485.09
2022-12-26T15:09:51.169Z,101482.50
2022-12-26T15:12:17.547Z,101494.47
2022-12-26T15:15:21.574Z,101485.19
2022-12-26T15:17:56.021Z,101481.13
2022-12-26T15:20:45.470Z,101480.34
2022-12-26T15:23:23.517Z,101499.19
2022-12-26T15:26:05.114Z,101496.03
2022-12-26T15:28:47.213Z,101488.69
2022-12-26T15:31:41.744Z,101504.69
2022-12-26T15:34:11.258Z,101505.56
2022-12-26T15:36:51.046Z,101504.16
2022-12-26T15:39:29.258Z,101517.97
2022-12-26T15:42:32.609Z,101507.72
2022-12-26T15:45:33.200Z,101521.38
2022-12-26T15:48:36.201Z,101523.19
2022-12-26T15:51:08.763Z,101515.97
2022-12-26T15:54:05.349Z,101516.56
2022-12-26T15:56:49.919Z,101531.22
2022-12-26T15:59:31.659Z,101532.03
2022-12-26T16:01:58.672Z,101525.91
2022-12-26T16:04:34.660Z,101523.66
2022-12-26T16:07:24.215Z,101522.41
2022-12-26T16:09:54.691Z,101511.56
2022-12-26T16:12:24.411Z,101514.94
2022-12-26T16:15:11.212Z,101520.00
2022-12-26T16:17:39.236Z,101522.34
2022-12-26T16:20:50.423Z,101528.50
2022-12-26T16:23:20.643Z,101527.91
2022-12-26T16:25:52.467Z,101530.28
2022-12-26T16:28:25.057Z,101535.28
2022-12-26T16:30:52.094Z,101534.75
2022-12-26T16:33:19.490Z,101541.84
2022-12-26T16:35:45.996Z,101538.09
2022-12-26T16:38:22.430Z,101542.41
2022-12-26T16:40:51.235Z,101534.06
2022-12-26T16:43:17.606Z,101541.69
2022-12-26T16:45:46.744Z,101537.25
2022-12-26T16:48:19.510Z,101539.91
2022-12-26T16:50:52.131Z,101544.75
2022-12-26T16:53:35.228Z,101545.22
2022-12-26T16:56:27.940Z,101535.31
2022-12-26T16:59:04.782Z,101541.16
2022-12-26T17:01:32.429Z,101549.41
2022-12-26T17:04:30.000Z,101537.00
2022-12-26T17:07:04.719Z,101540.91
2022-12-26T17:09:43.450Z,101537.53
2022-12-26T17:12:22.526Z,101546.34
2022-12-26T17:14:50.310Z,101556.38
2022-12-26T17:17:22.565Z,101554.72
2022-12-26T17:19:54.140Z,101566.63
2022-12-26T17:22:31.970Z,101572.59
2022-12-26T17:25:21.537Z,101574.16
2022-12-26T17:28:06.265Z,101572.75
2022-12-26T17:30:33.761Z,101569.41
2022-12-26T17:33:09.033Z,101579.91
2022-12-26T17:36:06.051Z,101577.50
2022-12-26T17:38:25.925Z,101572.34
2022-12-26T17:40:55.368Z,101569.84
2022-12-26T17:43:25.457Z,101577.34
2022-12-26T17:45:51.908Z,101583.91
2022-12-26T17:48:18.480Z,101589.09
2022-12-26T17:50:49.314Z,101586.47
2022-12-26T17:53:36.117Z,101593.97
2022-12-26T17:56:06.323Z,101585.47
2022-12-26T17:58:33.612Z,101601.53
2022-12-26T18:01:00.941Z,101595.66
2022-12-26T18:03:27.897Z,101594.00
2022-12-26T18:05:56.454Z,101598.63
2022-12-26T18:08:27.840Z,101605.28
2022-12-26T18:10:54.496Z,101616.59
2022-12-26T18:13:21.209Z,101603.47
2022-12-26T18:15:47.930Z,101606.13
2022-12-26T18:18:24.014Z,101611.72
2022-12-26T18:20:50.559Z,101617.31
2022-12-26T18:23:17.459Z,101605.63
2022-12-26T18:25:44.322Z,101604.78
2022-12-26T18:28:13.580Z,101620.50
2022-12-26T18:30:40.398Z,101615.63
2022-12-26T18:33:08.563Z,101619.81
2022-12-26T18:35:35.006Z,101616.06
2022-12-26T18:38:01.432Z,101625.53
2022-12-26T18:40:38.474Z,101636.72
2022-12-26T18:43:06.766Z,101639.66
2022-12-26T18:45:34.603Z,101639.66
2022-12-26T18:48:01.625Z,101637.00
2022-12-26T18:50:30.141Z,101639.81
2022-12-26T18:52:56.934Z,101652.34
2022-12-26T18:55:25.384Z,101658.09
2022-12-26T18:57:52.925Z,101658.94
2022-12-26T19:00:20.795Z,101668.41
2022-12-26T19:02:48.110Z,101676.50
2022-12-26T19:05:18.301Z,101675.81
2022-12-26T19:07:48.231Z,101682.38
2022-12-26T19:10:16.678Z,101677.34
2022-12-26T19:12:43.331Z,101676.78
2022-12-26T19:15:11.186Z,101682.38
2022-12-26T19:17:38.372Z,101678.88
2022-12-26T19:20:09.164Z,101679.56
2022-12-26T19:22:35.690Z,101686.69
2022-12-26T19:25:02.288Z,101676.50
2022-12-26T19:27:29.790Z,101672.75
2022-12-26T19:29:56.272Z,101670.34
2022-12-26T19:32:22.739Z,101680.56
2022-12-26T19:34:49.229Z,101671.19
2022-12-26T19:37:15.746Z,101667.00
2022-12-26T19:39:42.161Z,101673.97
2022-12-26T19:42:08.606Z,101672.00
2022-12-26T19:44:35.106Z,101676.47
2022-12-26T19:47:11.337Z,101680.81
2022-12-26T19:49:38.718Z,101689.63
2022-12-26T19:52:05.152Z,101684.56
2022-12-26T19:54:31.552Z,101681.94
2022-12-26T19:56:57.955Z,101685.41
2022-12-26T19:59:24.391Z,101691.13
2022-12-26T20:01:51.144Z,101697.69
2022-12-26T20:04:17.904Z,101684.44
2022-12-26T20:06:44.366Z,101689.75
2022-12-26T20:09:14.376Z,101690.72
2022-12-26T20:11:44.417Z,101689.06
2022-12-26T20:14:16.875Z,101690.44
2022-12-26T20:17:04.891Z,101689.06
2022-12-26T20:19:30.110Z,101693.53
2022-12-26T20:21:56.681Z,101699.53
2022-12-26T20:24:23.208Z,101695.34
2022-12-26T20:26:50.260Z,101692.53
2022-12-26T20:29:17.309Z,101706.78
2022-12-26T20:31:43.772Z,101699.13
2022-12-26T20:34:11.852Z,101709.59
2022-12-26T20:36:39.198Z,101716.56
2022-12-26T20:39:10.258Z,101717.69
2022-12-26T20:41:36.744Z,101720.91
2022-12-26T20:44:03.537Z,101733.03
2022-12-26T20:46:32.129Z,101726.06
2022-12-26T20:49:05.170Z,101734.72
2022-12-26T20:51:37.405Z,101739.59
2022-12-26T20:54:06.118Z,101745.03
2022-12-26T20:56:32.836Z,101736.28
2022-12-26T20:58:59.701Z,101746.88
2022-12-26T21:01:27.138Z,101739.75
2022-12-26T21:03:55.019Z,101753.84
2022-12-26T21:06:29.788Z,101754.00
2022-12-26T21:08:57.641Z,101765.31
2022-12-26T21:11:30.464Z,101756.34
2022-12-26T21:14:00.384Z,101761.94
2022-12-26T21:16:30.736Z,101767.81
2022-12-26T21:18:58.063Z,101769.75
2022-12-26T21:21:30.747Z,101769.34
2022-12-26T21:23:59.607Z,101773.97
2022-12-26T21:26:27.259Z,101772.41
2022-12-26T21:29:02.208Z,101777.03
2022-12-26T21:31:30.542Z,101776.31
2022-12-26T21:33:58.824Z,101784.28
2022-12-26T21:36:26.398Z,101790.44
2022-12-26T21:38:53.500Z,101782.47
2022-12-26T21:41:21.924Z,101773.81
2022-12-26T21:43:49.135Z,101780.81
2022-12-26T21:46:18.620Z,101777.59
2022-12-26T21:48:47.402Z,101787.63
2022-12-26T21:51:18.758Z,101781.63
2022-12-26T21:53:46.338Z,101789.06
2022-12-26T21:56:15.096Z,101788.91
2022-12-26T21:59:01.620Z,101799.38
2022-12-26T22:01:29.677Z,101810.56
2022-12-26T22:04:15.363Z,101811.50
2022-12-26T22:06:42.564Z,101810.81
2022-12-26T22:09:09.830Z,101814.44
2022-12-26T22:11:56.986Z,101812.63
2022-12-26T22:14:23.574Z,101816.09
2022-12-26T22:16:54.846Z,101820.31
2022-12-26T22:19:24.549Z,101821.97
2022-12-26T22:21:52.826Z,101814.16
2022-12-26T22:24:21.355Z,101825.47
2022-12-26T22:26:48.294Z,101829.78
2022-12-26T22:29:14.818Z,101809.13
2022-12-26T22:31:41.247Z,101817.25
2022-12-26T22:34:14.000Z,101825.06
2022-12-26T22:36:41.138Z,101824.22
2022-12-26T22:39:08.103Z,101828.69
2022-12-26T22:41:35.056Z,101832.44
2022-12-26T22:44:01.502Z,101842.94
2022-12-26T22:46:27.968Z,101850.06
2022-12-26T22:48:54.412Z,101847.28
2022-12-26T22:51:23.095Z,101845.72
2022-12-26T22:53:53.048Z,101849.06
2022-12-26T22:56:19.480Z,101858.03
2022-12-26T22:58:46.059Z,101853.69
2022-12-26T23:01:18.148Z,101860.53
2022-12-26T23:03:45.636Z,101862.19
2022-12-26T23:06:29.713Z,101853.41
2022-12-26T23:08:58.399Z,101857.03
2022-12-26T23:11:34.868Z,101860.81
2022-12-26T23:14:03.509Z,101855.50
2022-12-26T23:16:45.044Z,101866.81
2022-12-26T23:19:39.234Z,101871.00
2022-12-26T23:22:05.913Z,101876.16
2022-12-26T23:24:32.997Z,101876.16
2022-12-26T23:27:22.411Z,101878.00
2022-12-26T23:30:10.112Z,101876.16
2022-12-26T23:32:37.664Z,101875.34
2022-12-26T23:35:05.621Z,101873.66
2022-12-26T23:37:32.144Z,101876.44
2022-12-26T23:39:58.656Z,101870.59
2022-12-26T23:42:25.669Z,101868.50
2022-12-26T23:44:52.101Z,101866.66
2022-12-26T23:47:18.558Z,101866.38
2022-12-26T23:49:45.011Z,101884.28
2022-12-26T23:52:11.485Z,101872.81
2022-12-26T23:54:37.976Z,101870.72
2022-12-26T23:57:04.405Z,101870.72
2022-12-26T23:59:30.822Z,101871.72
